sensor_id;sensor_type;location;lat;lon;timestamp;pressure;altitude;pressure_sealevel;temperature;humidity
61506;BME280;47366;51.916;4.574;2024-02-26T00:00:04;100012.50;;;6.47;95.17
61506;BME280;47366;51.916;4.574;2024-02-26T00:02:34;100014.31;;;6.47;95.16
61506;BME280;47366;51.916;4.574;2024-02-26T00:05:04;100015.09;;;6.49;95.20
61506;BME280;47366;51.916;4.574;2024-02-26T00:07:30;100016.22;;;6.45;95.37
61506;BME280;47366;51.916;4.574;2024-02-26T00:09:55;100025.75;;;6.50;95.21
61506;BME280;47366;51.916;4.574;2024-02-26T00:12:21;100012.75;;;6.43;95.53
61506;BME280;47366;51.916;4.574;2024-02-26T00:14:46;100025.09;;;6.47;95.14
61506;BME280;47366;51.916;4.574;2024-02-26T00:17:12;100017.97;;;6.46;95.22
61506;BME280;47366;51.916;4.574;2024-02-26T00:19:38;100017.00;;;6.47;95.08
61506;BME280;47366;51.916;4.574;2024-02-26T00:22:03;100006.72;;;6.39;95.26
61506;BME280;47366;51.916;4.574;2024-02-26T00:24:29;100017.22;;;6.44;95.28
61506;BME280;47366;51.916;4.574;2024-02-26T00:26:54;100018.31;;;6.40;95.59
61506;BME280;47366;51.916;4.574;2024-02-26T00:29:20;100022.66;;;6.42;95.60
61506;BME280;47366;51.916;4.574;2024-02-26T00:31:45;100025.09;;;6.47;95.33
61506;BME280;47366;51.916;4.574;2024-02-26T00:34:11;100006.53;;;6.42;95.18
61506;BME280;47366;51.916;4.574;2024-02-26T00:36:36;100011.72;;;6.45;94.73
61506;BME280;47366;51.916;4.574;2024-02-26T00:39:01;99999.22;;;6.44;94.77
61506;BME280;47366;51.916;4.574;2024-02-26T00:41:28;100012.22;;;6.52;94.89
61506;BME280;47366;51.916;4.574;2024-02-26T00:43:54;100011.44;;;6.50;94.92
61506;BME280;47366;51.916;4.574;2024-02-26T00:46:19;100002.78;;;6.45;94.72
61506;BME280;47366;51.916;4.574;2024-02-26T00:48:44;100009.13;;;6.44;94.85
61506;BME280;47366;51.916;4.574;2024-02-26T00:51:10;100020.56;;;6.47;94.99
61506;BME280;47366;51.916;4.574;2024-02-26T00:53:35;100006.72;;;6.39;94.96
61506;BME280;47366;51.916;4.574;2024-02-26T00:56:00;100014.50;;;6.44;95.25
61506;BME280;47366;51.916;4.574;2024-02-26T00:58:26;100014.84;;;6.37;95.32
61506;BME280;47366;51.916;4.574;2024-02-26T01:00:52;100020.16;;;6.39;95.17
61506;BME280;47366;51.916;4.574;2024-02-26T01:03:18;100014.06;;;6.35;95.25
61506;BME280;47366;51.916;4.574;2024-02-26T01:05:46;100021.97;;;6.38;95.32
61506;BME280;47366;51.916;4.574;2024-02-26T01:08:11;100014.16;;;6.34;95.05
61506;BME280;47366;51.916;4.574;2024-02-26T01:10:36;100010.59;;;6.33;95.15
61506;BME280;47366;51.916;4.574;2024-02-26T01:13:02;100023.53;;;6.43;95.01
61506;BME280;47366;51.916;4.574;2024-02-26T01:15:27;100009.56;;;6.36;95.01
61506;BME280;47366;51.916;4.574;2024-02-26T01:17:53;100024.56;;;6.40;94.79
61506;BME280;47366;51.916;4.574;2024-02-26T01:20:19;100019.13;;;6.42;94.77
61506;BME280;47366;51.916;4.574;2024-02-26T01:22:44;100022.75;;;6.41;94.61
61506;BME280;47366;51.916;4.574;2024-02-26T01:25:10;100016.56;;;6.38;94.62
61506;BME280;47366;51.916;4.574;2024-02-26T01:27:36;100022.84;;;6.39;94.96
61506;BME280;47366;51.916;4.574;2024-02-26T01:30:05;100010.53;;;6.35;94.81
61506;BME280;47366;51.916;4.574;2024-02-26T01:32:31;100015.72;;;6.38;94.99
61506;BME280;47366;51.916;4.574;2024-02-26T01:34:56;100008.97;;;6.31;95.06
61506;BME280;47366;51.916;4.574;2024-02-26T01:37:22;100021.22;;;6.36;95.15
61506;BME280;47366;51.916;4.574;2024-02-26T01:39:47;100017.63;;;6.36;95.10
61506;BME280;47366;51.916;4.574;2024-02-26T01:42:13;100015.13;;;6.33;95.17
61506;BME280;47366;51.916;4.574;2024-02-26T01:44:38;100023.13;;;6.34;94.94
61506;BME280;47366;51.916;4.574;2024-02-26T01:47:04;100035.50;;;6.37;95.14
61506;BME280;47366;51.916;4.574;2024-02-26T01:49:30;100040.88;;;6.37;94.98
61506;BME280;47366;51.916;4.574;2024-02-26T01:51:56;100044.53;;;6.36;95.14
61506;BME280;47366;51.916;4.574;2024-02-26T01:54:23;100041.03;;;6.34;95.42
61506;BME280;47366;51.916;4.574;2024-02-26T01:56:49;100049.03;;;6.35;95.24
61506;BME280;47366;51.916;4.574;2024-02-26T01:59:16;100050.00;;;6.34;95.39
61506;BME280;47366;51.916;4.574;2024-02-26T02:01:44;100051.66;;;6.37;95.13
61506;BME280;47366;51.916;4.574;2024-02-26T02:04:12;100050.69;;;6.38;95.08
61506;BME280;47366;51.916;4.574;2024-02-26T02:06:38;100052.19;;;6.44;95.14
61506;BME280;47366;51.916;4.574;2024-02-26T02:09:03;100049.75;;;6.39;95.00
61506;BME280;47366;51.916;4.574;2024-02-26T02:11:33;100059.72;;;6.37;95.04
61506;BME280;47366;51.916;4.574;2024-02-26T02:13:58;100072.13;;;6.40;95.04
61506;BME280;47366;51.916;4.574;2024-02-26T02:16:24;100066.94;;;6.36;94.71
61506;BME280;47366;51.916;4.574;2024-02-26T02:18:50;100080.09;;;6.41;94.92
61506;BME280;47366;51.916;4.574;2024-02-26T02:21:15;100081.66;;;6.45;94.80
61506;BME280;47366;51.916;4.574;2024-02-26T02:23:49;100078.09;;;6.45;94.46
61506;BME280;47366;51.916;4.574;2024-02-26T02:26:15;100089.72;;;6.45;94.54
61506;BME280;47366;51.916;4.574;2024-02-26T02:28:41;100083.75;;;6.40;94.57
61506;BME280;47366;51.916;4.574;2024-02-26T02:31:07;100085.56;;;6.40;94.53
61506;BME280;47366;51.916;4.574;2024-02-26T02:33:36;100097.19;;;6.40;94.68
61506;BME280;47366;51.916;4.574;2024-02-26T02:36:02;100093.72;;;6.38;94.63
61506;BME280;47366;51.916;4.574;2024-02-26T02:38:27;100087.72;;;6.33;94.88
61506;BME280;47366;51.916;4.574;2024-02-26T02:40:55;100090.25;;;6.36;94.82
61506;BME280;47366;51.916;4.574;2024-02-26T02:43:20;100086.88;;;6.32;94.64
61506;BME280;47366;51.916;4.574;2024-02-26T02:45:45;100093.13;;;6.33;94.86
61506;BME280;47366;51.916;4.574;2024-02-26T02:48:11;100107.16;;;6.38;94.57
61506;BME280;47366;51.916;4.574;2024-02-26T02:50:36;100102.50;;;6.42;94.46
61506;BME280;47366;51.916;4.574;2024-02-26T02:53:02;100100.84;;;6.39;94.46
61506;BME280;47366;51.916;4.574;2024-02-26T02:55:27;100106.56;;;6.33;94.60
61506;BME280;47366;51.916;4.574;2024-02-26T02:57:53;100100.56;;;6.28;94.85
61506;BME280;47366;51.916;4.574;2024-02-26T03:00:18;100105.09;;;6.27;94.82
61506;BME280;47366;51.916;4.574;2024-02-26T03:02:44;100117.25;;;6.34;94.91
61506;BME280;47366;51.916;4.574;2024-02-26T03:05:10;100096.00;;;6.30;94.78
61506;BME280;47366;51.916;4.574;2024-02-26T03:07:35;100105.78;;;6.31;94.88
61506;BME280;47366;51.916;4.574;2024-02-26T03:10:00;100099.53;;;6.30;94.99
61506;BME280;47366;51.916;4.574;2024-02-26T03:12:26;100112.28;;;6.27;95.34
61506;BME280;47366;51.916;4.574;2024-02-26T03:14:53;100107.06;;;6.24;95.47
61506;BME280;47366;51.916;4.574;2024-02-26T03:17:19;100106.22;;;6.23;95.21
61506;BME280;47366;51.916;4.574;2024-02-26T03:19:45;100115.84;;;6.27;95.40
61506;BME280;47366;51.916;4.574;2024-02-26T03:22:12;100120.53;;;6.24;95.36
61506;BME280;47366;51.916;4.574;2024-02-26T03:24:37;100116.00;;;6.24;95.37
61506;BME280;47366;51.916;4.574;2024-02-26T03:27:03;100115.94;;;6.26;95.08
61506;BME280;47366;51.916;4.574;2024-02-26T03:29:30;100125.91;;;6.24;95.13
61506;BME280;47366;51.916;4.574;2024-02-26T03:31:56;100123.13;;;6.25;95.24
61506;BME280;47366;51.916;4.574;2024-02-26T03:34:21;100114.47;;;6.20;95.33
61506;BME280;47366;51.916;4.574;2024-02-26T03:36:47;100123.31;;;6.22;95.40
61506;BME280;47366;51.916;4.574;2024-02-26T03:39:12;100119.03;;;6.18;95.41
61506;BME280;47366;51.916;4.574;2024-02-26T03:41:37;100123.22;;;6.24;95.21
61506;BME280;47366;51.916;4.574;2024-02-26T03:44:03;100115.31;;;6.21;95.42
61506;BME280;47366;51.916;4.574;2024-02-26T03:46:28;100122.59;;;6.19;95.22
61506;BME280;47366;51.916;4.574;2024-02-26T03:48:54;100119.03;;;6.18;95.63
61506;BME280;47366;51.916;4.574;2024-02-26T03:51:19;100113.13;;;6.11;95.12
61506;BME280;47366;51.916;4.574;2024-02-26T03:53:45;100122.16;;;6.10;95.81
61506;BME280;47366;51.916;4.574;2024-02-26T03:56:13;100118.75;;;6.07;96.34
61506;BME280;47366;51.916;4.574;2024-02-26T03:58:38;100117.03;;;6.06;96.64
61506;BME280;47366;51.916;4.574;2024-02-26T04:01:07;100125.53;;;6.14;96.81
61506;BME280;47366;51.916;4.574;2024-02-26T04:03:32;100125.78;;;6.09;97.19
61506;BME280;47366;51.916;4.574;2024-02-26T04:05:58;100125.25;;;6.03;96.90
61506;BME280;47366;51.916;4.574;2024-02-26T04:08:23;100140.19;;;6.08;97.16
61506;BME280;47366;51.916;4.574;2024-02-26T04:10:48;100117.34;;;6.00;97.05
61506;BME280;47366;51.916;4.574;2024-02-26T04:13:14;100133.41;;;6.01;97.00
61506;BME280;47366;51.916;4.574;2024-02-26T04:15:39;100144.72;;;6.08;97.24
61506;BME280;47366;51.916;4.574;2024-02-26T04:18:05;100145.88;;;6.02;97.25
61506;BME280;47366;51.916;4.574;2024-02-26T04:20:30;100148.75;;;5.99;97.04
61506;BME280;47366;51.916;4.574;2024-02-26T04:22:55;100149.44;;;6.03;97.20
61506;BME280;47366;51.916;4.574;2024-02-26T04:25:21;100140.63;;;6.01;97.03
61506;BME280;47366;51.916;4.574;2024-02-26T04:27:46;100154.69;;;6.06;97.16
61506;BME280;47366;51.916;4.574;2024-02-26T04:30:12;100141.56;;;6.00;97.34
61506;BME280;47366;51.916;4.574;2024-02-26T04:32:37;100148.56;;;6.02;97.10
61506;BME280;47366;51.916;4.574;2024-02-26T04:35:03;100138.19;;;5.96;97.01
61506;BME280;47366;51.916;4.574;2024-02-26T04:37:28;100159.25;;;6.04;96.92
61506;BME280;47366;51.916;4.574;2024-02-26T04:40:00;100160.06;;;6.06;97.02
61506;BME280;47366;51.916;4.574;2024-02-26T04:42:26;100158.41;;;6.03;97.22
61506;BME280;47366;51.916;4.574;2024-02-26T04:44:51;100165.50;;;6.04;97.23
61506;BME280;47366;51.916;4.574;2024-02-26T04:47:16;100155.06;;;5.98;97.17
61506;BME280;47366;51.916;4.574;2024-02-26T04:49:42;100162.75;;;6.06;97.05
61506;BME280;47366;51.916;4.574;2024-02-26T04:52:07;100160.19;;;6.03;96.90
61506;BME280;47366;51.916;4.574;2024-02-26T04:54:33;100160.53;;;5.97;97.33
61506;BME280;47366;51.916;4.574;2024-02-26T04:56:58;100170.09;;;6.02;97.18
61506;BME280;47366;51.916;4.574;2024-02-26T04:59:24;100170.19;;;6.01;96.85
61506;BME280;47366;51.916;4.574;2024-02-26T05:01:49;100170.50;;;5.94;97.09
61506;BME280;47366;51.916;4.574;2024-02-26T05:04:16;100167.00;;;5.92;96.99
61506;BME280;47366;51.916;4.574;2024-02-26T05:06:41;100179.19;;;6.00;97.30
61506;BME280;47366;51.916;4.574;2024-02-26T05:09:07;100180.94;;;6.01;97.28
61506;BME280;47366;51.916;4.574;2024-02-26T05:11:32;100183.53;;;6.02;97.09
61506;BME280;47366;51.916;4.574;2024-02-26T05:13:57;100188.22;;;5.99;96.71
61506;BME280;47366;51.916;4.574;2024-02-26T05:16:23;100177.34;;;6.00;96.75
61506;BME280;47366;51.916;4.574;2024-02-26T05:18:50;100182.91;;;5.97;96.84
61506;BME280;47366;51.916;4.574;2024-02-26T05:21:15;100189.94;;;6.00;96.84
61506;BME280;47366;51.916;4.574;2024-02-26T05:23:40;100194.22;;;6.04;96.78
61506;BME280;47366;51.916;4.574;2024-02-26T05:26:08;100189.16;;;5.98;96.65
61506;BME280;47366;51.916;4.574;2024-02-26T05:28:34;100203.06;;;6.06;96.70
61506;BME280;47366;51.916;4.574;2024-02-26T05:30:59;100215.88;;;6.01;96.37
61506;BME280;47366;51.916;4.574;2024-02-26T05:33:25;100214.84;;;6.03;96.78
61506;BME280;47366;51.916;4.574;2024-02-26T05:35:50;100213.28;;;5.99;96.29
61506;BME280;47366;51.916;4.574;2024-02-26T05:38:15;100205.91;;;6.03;96.51
61506;BME280;47366;51.916;4.574;2024-02-26T05:40:41;100213.09;;;6.02;96.61
61506;BME280;47366;51.916;4.574;2024-02-26T05:43:06;100215.00;;;6.00;96.54
61506;BME280;47366;51.916;4.574;2024-02-26T05:45:31;100203.38;;;6.00;96.39
61506;BME280;47366;51.916;4.574;2024-02-26T05:47:58;100218.41;;;6.04;96.40
61506;BME280;47366;51.916;4.574;2024-02-26T05:50:23;100227.50;;;6.01;96.34
61506;BME280;47366;51.916;4.574;2024-02-26T05:52:48;100223.31;;;5.95;96.39
61506;BME280;47366;51.916;4.574;2024-02-26T05:55:14;100229.22;;;6.02;96.48
61506;BME280;47366;51.916;4.574;2024-02-26T05:57:39;100234.78;;;5.99;95.98
61506;BME280;47366;51.916;4.574;2024-02-26T06:00:05;100236.75;;;5.95;96.09
61506;BME280;47366;51.916;4.574;2024-02-26T06:02:30;100249.94;;;6.00;96.18
61506;BME280;47366;51.916;4.574;2024-02-26T06:04:56;100239.44;;;5.95;96.21
61506;BME280;47366;51.916;4.574;2024-02-26T06:07:22;100251.59;;;6.03;96.06
61506;BME280;47366;51.916;4.574;2024-02-26T06:09:48;100252.78;;;5.97;96.11
61506;BME280;47366;51.916;4.574;2024-02-26T06:12:13;100261.66;;;5.99;96.21
61506;BME280;47366;51.916;4.574;2024-02-26T06:14:39;100264.97;;;6.04;95.96
61506;BME280;47366;51.916;4.574;2024-02-26T06:17:04;100264.28;;;6.01;96.00
61506;BME280;47366;51.916;4.574;2024-02-26T06:19:29;100276.69;;;6.03;96.12
61506;BME280;47366;51.916;4.574;2024-02-26T06:21:55;100271.31;;;6.03;96.23
61506;BME280;47366;51.916;4.574;2024-02-26T06:24:20;100282.94;;;6.04;95.81
61506;BME280;47366;51.916;4.574;2024-02-26T06:26:47;100283.97;;;6.01;96.17
61506;BME280;47366;51.916;4.574;2024-02-26T06:29:13;100286.03;;;5.96;95.93
61506;BME280;47366;51.916;4.574;2024-02-26T06:31:38;100285.78;;;6.01;96.29
61506;BME280;47366;51.916;4.574;2024-02-26T06:34:04;100282.53;;;5.94;96.56
61506;BME280;47366;51.916;4.574;2024-02-26T06:36:29;100301.25;;;5.95;96.43
61506;BME280;47366;51.916;4.574;2024-02-26T06:38:56;100285.44;;;5.89;96.50
61506;BME280;47366;51.916;4.574;2024-02-26T06:41:22;100308.75;;;5.89;96.58
61506;BME280;47366;51.916;4.574;2024-02-26T06:43:53;100314.19;;;5.87;96.69
61506;BME280;47366;51.916;4.574;2024-02-26T06:46:18;100314.19;;;5.87;96.61
61506;BME280;47366;51.916;4.574;2024-02-26T06:48:43;100312.75;;;5.80;96.92
61506;BME280;47366;51.916;4.574;2024-02-26T06:51:09;100317.19;;;5.81;97.04
61506;BME280;47366;51.916;4.574;2024-02-26T06:53:34;100327.78;;;5.84;97.07
61506;BME280;47366;51.916;4.574;2024-02-26T06:56:00;100324.44;;;5.79;97.32
61506;BME280;47366;51.916;4.574;2024-02-26T06:58:25;100326.13;;;5.82;97.63
61506;BME280;47366;51.916;4.574;2024-02-26T07:00:51;100336.78;;;5.83;97.32
61506;BME280;47366;51.916;4.574;2024-02-26T07:03:16;100349.34;;;5.83;97.64
61506;BME280;47366;51.916;4.574;2024-02-26T07:05:41;100340.28;;;5.85;97.28
61506;BME280;47366;51.916;4.574;2024-02-26T07:08:07;100343.91;;;5.84;97.46
61506;BME280;47366;51.916;4.574;2024-02-26T07:10:32;100343.91;;;5.84;97.64
61506;BME280;47366;51.916;4.574;2024-02-26T07:12:57;100338.53;;;5.84;97.49
61506;BME280;47366;51.916;4.574;2024-02-26T07:15:24;100356.34;;;5.87;97.68
61506;BME280;47366;51.916;4.574;2024-02-26T07:17:49;100362.41;;;5.90;98.15
61506;BME280;47366;51.916;4.574;2024-02-26T07:20:15;100363.28;;;5.91;98.11
61506;BME280;47366;51.916;4.574;2024-02-26T07:22:40;100353.53;;;5.88;98.27
61506;BME280;47366;51.916;4.574;2024-02-26T07:25:07;100359.03;;;5.87;98.20
61506;BME280;47366;51.916;4.574;2024-02-26T07:27:34;100377.59;;;5.91;98.05
61506;BME280;47366;51.916;4.574;2024-02-26T07:29:59;100378.47;;;5.92;98.62
61506;BME280;47366;51.916;4.574;2024-02-26T07:32:24;100366.50;;;5.80;99.01
61506;BME280;47366;51.916;4.574;2024-02-26T07:34:50;100379.72;;;5.85;98.84
61506;BME280;47366;51.916;4.574;2024-02-26T07:37:15;100385.09;;;5.85;99.53
61506;BME280;47366;51.916;4.574;2024-02-26T07:39:41;100384.13;;;5.86;99.13
61506;BME280;47366;51.916;4.574;2024-02-26T07:42:06;100381.31;;;5.89;99.68
61506;BME280;47366;51.916;4.574;2024-02-26T07:44:32;100385.09;;;5.85;99.98
61506;BME280;47366;51.916;4.574;2024-02-26T07:46:58;100401.94;;;5.88;99.69
61506;BME280;47366;51.916;4.574;2024-02-26T07:49:23;100401.13;;;5.86;99.77
61506;BME280;47366;51.916;4.574;2024-02-26T07:51:48;100400.34;;;5.84;99.90
61506;BME280;47366;51.916;4.574;2024-02-26T07:54:14;100409.56;;;5.79;100.00
61506;BME280;47366;51.916;4.574;2024-02-26T07:56:41;100412.34;;;5.77;100.00
61506;BME280;47366;51.916;4.574;2024-02-26T07:59:08;100417.50;;;5.82;100.00
61506;BME280;47366;51.916;4.574;2024-02-26T08:01:34;100416.84;;;5.77;100.00
61506;BME280;47366;51.916;4.574;2024-02-26T08:04:00;100432.97;;;5.77;100.00
61506;BME280;47366;51.916;4.574;2024-02-26T08:06:25;100431.22;;;5.75;100.00
61506;BME280;47366;51.916;4.574;2024-02-26T08:08:50;100435.75;;;5.75;100.00
61506;BME280;47366;51.916;4.574;2024-02-26T08:11:16;100441.91;;;5.77;100.00
61506;BME280;47366;51.916;4.574;2024-02-26T08:13:41;100440.31;;;5.73;100.00
61506;BME280;47366;51.916;4.574;2024-02-26T08:16:07;100437.63;;;5.73;100.00
61506;BME280;47366;51.916;4.574;2024-02-26T08:18:33;100443.94;;;5.72;100.00
61506;BME280;47366;51.916;4.574;2024-02-26T08:20:58;100439.44;;;5.72;100.00
61506;BME280;47366;51.916;4.574;2024-02-26T08:23:23;100452.16;;;5.69;100.00
61506;BME280;47366;51.916;4.574;2024-02-26T08:25:50;100462.75;;;5.72;100.00
61506;BME280;47366;51.916;4.574;2024-02-26T08:28:15;100465.72;;;5.66;100.00
61506;BME280;47366;51.916;4.574;2024-02-26T08:30:43;100470.81;;;5.72;100.00
61506;BME280;47366;51.916;4.574;2024-02-26T08:33:08;100463.75;;;5.69;100.00
61506;BME280;47366;51.916;4.574;2024-02-26T08:35:34;100475.09;;;5.76;100.00
61506;BME280;47366;51.916;4.574;2024-02-26T08:37:59;100469.56;;;5.79;100.00
61506;BME280;47366;51.916;4.574;2024-02-26T08:40:24;100485.56;;;5.82;100.00
61506;BME280;47366;51.916;4.574;2024-02-26T08:42:50;100489.19;;;5.81;100.00
61506;BME280;47366;51.916;4.574;2024-02-26T08:45:15;100484.97;;;5.75;100.00
61506;BME280;47366;51.916;4.574;2024-02-26T08:47:40;100491.97;;;5.80;100.00
61506;BME280;47366;51.916;4.574;2024-02-26T08:50:06;100482.44;;;5.72;100.00
61506;BME280;47366;51.916;4.574;2024-02-26T08:52:32;100487.28;;;5.64;100.00
61506;BME280;47366;51.916;4.574;2024-02-26T08:54:58;100490.50;;;5.72;100.00
61506;BME280;47366;51.916;4.574;2024-02-26T08:57:24;100500.28;;;5.73;100.00
61506;BME280;47366;51.916;4.574;2024-02-26T08:59:52;100500.25;;;5.75;100.00
61506;BME280;47366;51.916;4.574;2024-02-26T09:02:17;100498.47;;;5.74;100.00
61506;BME280;47366;51.916;4.574;2024-02-26T09:04:45;100511.69;;;5.79;100.00
61506;BME280;47366;51.916;4.574;2024-02-26T09:07:10;100513.56;;;5.77;100.00
61506;BME280;47366;51.916;4.574;2024-02-26T09:09:35;100529.84;;;5.73;100.00
61506;BME280;47366;51.916;4.574;2024-02-26T09:12:01;100530.66;;;5.75;100.00
61506;BME280;47366;51.916;4.574;2024-02-26T09:14:27;100532.47;;;5.75;100.00
61506;BME280;47366;51.916;4.574;2024-02-26T09:16:52;100535.97;;;5.77;100.00
61506;BME280;47366;51.916;4.574;2024-02-26T09:19:18;100536.09;;;5.74;100.00
61506;BME280;47366;51.916;4.574;2024-02-26T09:21:44;100542.28;;;5.76;100.00
61506;BME280;47366;51.916;4.574;2024-02-26T09:24:11;100545.91;;;5.75;100.00
61506;BME280;47366;51.916;4.574;2024-02-26T09:26:37;100552.88;;;5.79;100.00
61506;BME280;47366;51.916;4.574;2024-02-26T09:29:03;100568.22;;;5.77;100.00
61506;BME280;47366;51.916;4.574;2024-02-26T09:31:29;100551.19;;;5.77;100.00
61506;BME280;47366;51.916;4.574;2024-02-26T09:33:54;100549.41;;;5.77;100.00
61506;BME280;47366;51.916;4.574;2024-02-26T09:36:20;100563.50;;;5.82;100.00
61506;BME280;47366;51.916;4.574;2024-02-26T09:38:46;100563.41;;;5.84;100.00
61506;BME280;47366;51.916;4.574;2024-02-26T09:41:14;100567.78;;;5.86;100.00
61506;BME280;47366;51.916;4.574;2024-02-26T09:43:43;100570.41;;;5.88;100.00
61506;BME280;47366;51.916;4.574;2024-02-26T09:46:10;100577.75;;;5.84;100.00
61506;BME280;47366;51.916;4.574;2024-02-26T09:48:35;100576.06;;;5.82;100.00
61506;BME280;47366;51.916;4.574;2024-02-26T09:51:02;100588.34;;;5.87;100.00
61506;BME280;47366;51.916;4.574;2024-02-26T09:53:29;100596.47;;;5.86;100.00
61506;BME280;47366;51.916;4.574;2024-02-26T09:55:59;100595.59;;;5.85;100.00
61506;BME280;47366;51.916;4.574;2024-02-26T09:58:28;100601.03;;;5.84;100.00
61506;BME280;47366;51.916;4.574;2024-02-26T10:00:56;100592.06;;;5.85;100.00
61506;BME280;47366;51.916;4.574;2024-02-26T10:03:31;100603.50;;;5.88;100.00
61506;BME280;47366;51.916;4.574;2024-02-26T10:05:59;100615.16;;;5.89;100.00
61506;BME280;47366;51.916;4.574;2024-02-26T10:08:25;100605.28;;;5.89;100.00
61506;BME280;47366;51.916;4.574;2024-02-26T10:10:51;100620.59;;;5.87;100.00
61506;BME280;47366;51.916;4.574;2024-02-26T10:13:17;100607.44;;;5.81;100.00
61506;BME280;47366;51.916;4.574;2024-02-26T10:15:44;100617.75;;;5.90;100.00
61506;BME280;47366;51.916;4.574;2024-02-26T10:18:10;100602.81;;;5.85;100.00
61506;BME280;47366;51.916;4.574;2024-02-26T10:20:35;100610.56;;;5.91;100.00
61506;BME280;47366;51.916;4.574;2024-02-26T10:23:04;100608.53;;;5.77;100.00
61506;BME280;47366;51.916;4.574;2024-02-26T10:25:30;100622.09;;;5.74;100.00
61506;BME280;47366;51.916;4.574;2024-02-26T10:28:00;100633.66;;;5.76;100.00
61506;BME280;47366;51.916;4.574;2024-02-26T10:30:28;100621.16;;;5.75;100.00
61506;BME280;47366;51.916;4.574;2024-02-26T10:32:56;100633.66;;;5.76;100.00
61506;BME280;47366;51.916;4.574;2024-02-26T10:35:23;100643.38;;;5.79;100.00
61506;BME280;47366;51.916;4.574;2024-02-26T10:37:50;100649.41;;;5.84;100.00
61506;BME280;47366;51.916;4.574;2024-02-26T10:40:16;100647.69;;;5.83;100.00
61506;BME280;47366;51.916;4.574;2024-02-26T10:42:43;100661.94;;;5.85;100.00
61506;BME280;47366;51.916;4.574;2024-02-26T10:45:12;100653.06;;;5.83;100.00
61506;BME280;47366;51.916;4.574;2024-02-26T10:47:40;100660.91;;;5.87;100.00
61506;BME280;47366;51.916;4.574;2024-02-26T10:50:08;100665.34;;;5.88;100.00
61506;BME280;47366;51.916;4.574;2024-02-26T10:52:35;100667.22;;;5.86;100.00
61506;BME280;47366;51.916;4.574;2024-02-26T10:55:05;100677.84;;;5.89;100.00
61506;BME280;47366;51.916;4.574;2024-02-26T10:57:39;100666.56;;;5.81;100.00
61506;BME280;47366;51.916;4.574;2024-02-26T11:00:08;100668.31;;;5.82;100.00
61506;BME280;47366;51.916;4.574;2024-02-26T11:02:38;100677.84;;;5.89;100.00
61506;BME280;47366;51.916;4.574;2024-02-26T11:05:06;100691.22;;;5.91;100.00
61506;BME280;47366;51.916;4.574;2024-02-26T11:07:34;100692.00;;;5.94;100.00
61506;BME280;47366;51.916;4.574;2024-02-26T11:10:03;100698.22;;;5.95;100.00
61506;BME280;47366;51.916;4.574;2024-02-26T11:12:30;100699.56;;;5.85;100.00
61506;BME280;47366;51.916;4.574;2024-02-26T11:14:56;100705.81;;;5.85;100.00
61506;BME280;47366;51.916;4.574;2024-02-26T11:17:25;100702.06;;;5.89;100.00
61506;BME280;47366;51.916;4.574;2024-02-26T11:19:53;100705.66;;;5.88;100.00
61506;BME280;47366;51.916;4.574;2024-02-26T11:22:20;100712.06;;;5.86;100.00
61506;BME280;47366;51.916;4.574;2024-02-26T11:24:47;100705.66;;;5.88;100.00
61506;BME280;47366;51.916;4.574;2024-02-26T11:27:13;100715.53;;;5.88;100.00
61506;BME280;47366;51.916;4.574;2024-02-26T11:29:50;100726.06;;;5.94;100.00
61506;BME280;47366;51.916;4.574;2024-02-26T11:32:17;100711.94;;;5.89;100.00
61506;BME280;47366;51.916;4.574;2024-02-26T11:34:43;100731.53;;;5.91;100.00
61506;BME280;47366;51.916;4.574;2024-02-26T11:37:11;100724.09;;;5.98;100.00
61506;BME280;47366;51.916;4.574;2024-02-26T11:39:37;100726.59;;;6.02;100.00
61506;BME280;47366;51.916;4.574;2024-02-26T11:42:13;100736.69;;;5.97;100.00
61506;BME280;47366;51.916;4.574;2024-02-26T11:44:39;100741.91;;;6.00;100.00
61506;BME280;47366;51.916;4.574;2024-02-26T11:47:13;100719.03;;;5.90;100.00
61506;BME280;47366;51.916;4.574;2024-02-26T11:49:39;100754.44;;;6.01;100.00
61506;BME280;47366;51.916;4.574;2024-02-26T11:52:07;100737.91;;;5.88;100.00
61506;BME280;47366;51.916;4.574;2024-02-26T11:54:52;100754.50;;;6.00;100.00
61506;BME280;47366;51.916;4.574;2024-02-26T11:57:38;100741.91;;;6.00;100.00
61506;BME280;47366;51.916;4.574;2024-02-26T12:05:12;100754.50;;;6.00;100.00
61506;BME280;47366;51.916;4.574;2024-02-26T12:07:43;100751.81;;;6.00;100.00
61506;BME280;47366;51.916;4.574;2024-02-26T12:10:14;100752.75;;;5.99;100.00
61506;BME280;47366;51.916;4.574;2024-02-26T12:12:41;100763.16;;;6.06;100.00
61506;BME280;47366;51.916;4.574;2024-02-26T12:15:08;100761.41;;;6.05;100.00
61506;BME280;47366;51.916;4.574;2024-02-26T12:17:34;100758.81;;;6.04;100.00
61506;BME280;47366;51.916;4.574;2024-02-26T12:20:10;100773.88;;;6.08;100.00
61506;BME280;47366;51.916;4.574;2024-02-26T12:22:36;100767.69;;;6.06;100.00
61506;BME280;47366;51.916;4.574;2024-02-26T12:25:04;100780.78;;;6.13;100.00
61506;BME280;47366;51.916;4.574;2024-02-26T12:27:31;100774.31;;;6.18;100.00
61506;BME280;47366;51.916;4.574;2024-02-26T12:29:56;100773.16;;;6.23;100.00
61506;BME280;47366;51.916;4.574;2024-02-26T12:32:23;100793.66;;;6.26;100.00
61506;BME280;47366;51.916;4.574;2024-02-26T12:34:48;100776.00;;;6.20;100.00
61506;BME280;47366;51.916;4.574;2024-02-26T12:37:15;100795.19;;;6.31;100.00
61506;BME280;47366;51.916;4.574;2024-02-26T12:39:40;100782.75;;;6.29;100.00
61506;BME280;47366;51.916;4.574;2024-02-26T12:42:07;100798.09;;;6.27;100.00
61506;BME280;47366;51.916;4.574;2024-02-26T12:44:32;100805.25;;;6.28;100.00
61506;BME280;47366;51.916;4.574;2024-02-26T12:47:02;100809.47;;;6.33;100.00
61506;BME280;47366;51.916;4.574;2024-02-26T12:49:30;100823.72;;;6.35;100.00
61506;BME280;47366;51.916;4.574;2024-02-26T12:51:56;100808.06;;;6.25;100.00
61506;BME280;47366;51.916;4.574;2024-02-26T12:54:29;100820.31;;;6.32;100.00